Prospector, Canada
Current Conditions -  °F | °C
As of 5:00 AM on Saturday 01 Nov 2014 (Local Time) from CYQD Reporting Station
Few Clouds Few Clouds  
Wind Chill: -4°   Ceiling: Unl
Heat Index:   Visibility: 15mi
Dew Point: -5°   Wind: 15mph
Humidity: 65%   Direction: 160°SSE
Pressure: 29.8"   Gusts: NA
Location:  52.95°N, 101.27°W
Report Text: CYQD 011000Z 16013KT 15SM FEW075 01/M05 A2980 RMK AC2 SLP106
Loading
Personal Weather Stations






























Interactive Weather Map
Tropical Storm Tracking
New forecast layout! Learn more

10-Day Weather Forecast

Advertisements
Track Severe Weather on mobile